Terminal Aerodrome Forecast
Issued by NWS

Home | Current Version | Previous Version | Graphics & Text | Print | Product List | Glossary On
Versions: 1 2 3 4 5 6 7 8 9 10 11 12 13 14 15 16 17 18 19 20 21 22 23
000
FTUS42 KMHX 180302 AAA
TAFPGV
TAF AMD
KPGV 180302Z 1803/1824 VRB03KT 2SM -DZ BR OVC004
     FM180900 30006KT P6SM VCSH OVC007
     FM181100 31005KT P6SM BKN110
     FM181400 03008KT P6SM FEW250
      AMD LTD TO CLD VIS AND WIND=

USA.gov is the U.S. government's official web portal to all federal, state and local government web resources and services.